Time;durP1;ratioP1;P1;durP2;ratioP2;P2;SDS_P1;SDS_P2;PMS_P1;PMS_P2;Temp;Humidity;BMP_temperature;BMP_pressure;BME280_temperature;BME280_humidity;BME280_pressure;Samples;Min_cycle;Max_cycle;Signal;HPM_P1;HPM_P2
2022/10/17 00:00:43;;;;;;;0.50;0.50;;;;;;;;;;5028953;28;20026;-69
2022/10/17 00:03:09;;;;;;;0.50;0.50;;;;;;;;;;5028157;28;20108;-70
2022/10/17 00:05:44;;;;;;;1.73;1.60;;;7.30;99.90;;;;;;5029076;28;20820;-69
2022/10/17 00:08:11;;;;;;;1.17;1.17;;;7.70;99.90;;;;;;5028971;28;20056;-71
2022/10/17 00:10:37;;;;;;;0.40;0.40;;;7.60;99.90;;;;;;5016904;28;20029;-70
2022/10/17 00:13:03;;;;;;;2.67;1.27;;;7.40;99.90;;;;;;5028089;28;20444;-70
2022/10/17 00:15:29;;;;;;;0.40;0.40;;;7.80;99.90;;;;;;5030436;28;20108;-69
2022/10/17 00:17:55;;;;;;;2.87;2.67;;;7.40;99.90;;;;;;5029838;28;20072;-69
2022/10/17 00:20:21;;;;;;;1.65;1.48;;;7.90;99.90;;;;;;5029448;28;20072;-69
2022/10/17 00:22:46;;;;;;;0.60;0.60;;;7.80;99.90;;;;;;5029409;28;20065;-69
2022/10/17 00:25:12;;;;;;;0.60;0.60;;;8.00;99.90;;;;;;5028743;28;20056;-69
2022/10/17 00:27:39;;;;;;;0.40;0.40;;;7.60;99.90;;;;;;5029457;28;20028;-69
2022/10/17 00:30:08;;;;;;;0.70;0.70;;;7.60;99.90;;;;;;5027904;28;20034;-70
2022/10/17 00:32:34;;;;;;;0.50;0.50;;;7.80;99.90;;;;;;5029417;28;20030;-70
2022/10/17 00:34:59;;;;;;;0.60;0.60;;;7.10;99.90;;;;;;5029540;28;20128;-70
2022/10/17 00:37:25;;;;;;;1.63;1.53;;;7.80;99.90;;;;;;5030550;28;20042;-69
2022/10/17 00:39:50;;;;;;;0.50;0.50;;;7.90;99.90;;;;;;5028588;28;20033;-70
2022/10/17 00:42:16;;;;;;;0.40;0.40;;;;;;;;;;5029958;28;20044;-70
2022/10/17 00:44:46;;;;;;;0.50;0.50;;;;;;;;;;5028524;28;20384;-69
2022/10/17 00:47:15;;;;;;;0.68;0.68;;;7.40;99.90;;;;;;5028951;28;20282;-69
2022/10/17 00:49:41;;;;;;;0.30;0.30;;;7.40;99.90;;;;;;5027459;28;20044;-69
2022/10/17 00:52:12;;;;;;;0.40;0.40;;;7.60;99.90;;;;;;5028927;28;20034;-69
2022/10/17 00:54:43;;;;;;;0.47;0.47;;;7.60;99.90;;;;;;5027553;28;20038;-69
2022/10/17 00:57:09;;;;;;;0.55;0.55;;;7.60;99.90;;;;;;5027163;28;20022;-69
2022/10/17 00:59:36;;;;;;;;;;;7.60;99.90;;;;;;5029322;28;20432;-68
2022/10/17 01:02:07;;;;;;;0.55;0.55;;;7.60;99.90;;;;;;5031766;28;20031;-69
2022/10/17 01:04:32;;;;;;;0.88;0.88;;;7.40;99.90;;;;;;5033013;28;20041;-70
2022/10/17 01:06:58;;;;;;;0.40;0.40;;;;;;;;;;5033502;28;20037;-69
2022/10/17 01:09:24;;;;;;;0.40;0.40;;;;;;;;;;5030839;28;20392;-69
2022/10/17 01:12:10;;;;;;;1.05;1.05;;;7.10;99.90;;;;;;5031452;28;20152;-69
2022/10/17 01:14:39;;;;;;;0.40;0.40;;;7.60;99.90;;;;;;5033212;28;20168;-68
2022/10/17 01:17:18;;;;;;;0.38;0.38;;;7.80;99.90;;;;;;5032577;28;20112;-71
2022/10/17 01:19:52;;;;;;;0.50;0.50;;;7.60;99.90;;;;;;5022622;28;20022;-71
2022/10/17 01:22:58;;;;;;;0.85;0.85;;;7.50;99.90;;;;;;5032125;28;20045;-69
2022/10/17 01:25:49;;;;;;;0.80;0.80;;;8.20;99.90;;;;;;5012159;28;20442;-69
2022/10/17 01:28:30;;;;;;;0.65;0.65;;;7.80;99.90;;;;;;5018117;28;20034;-68
2022/10/17 01:31:13;;;;;;;0.30;0.30;;;7.30;99.90;;;;;;5032254;28;20489;-69
2022/10/17 01:34:19;;;;;;;0.80;0.80;;;7.60;99.90;;;;;;5032212;28;20025;-70
2022/10/17 01:37:04;;;;;;;2.00;1.63;;;7.50;99.90;;;;;;5018802;28;20535;-69
2022/10/17 01:39:55;;;;;;;0.40;0.40;;;7.70;99.90;;;;;;5032373;28;20123;-70
2022/10/17 01:42:26;;;;;;;0.70;0.70;;;7.60;99.90;;;;;;5032759;28;20033;-69
2022/10/17 01:44:57;;;;;;;0.40;0.40;;;7.40;99.90;;;;;;5031361;28;20476;-70
2022/10/17 01:47:26;;;;;;;0.68;0.68;;;7.50;99.90;;;;;;5031864;28;20172;-70
2022/10/17 01:49:54;;;;;;;0.47;0.47;;;7.30;99.90;;;;;;5029956;28;20101;-68
2022/10/17 01:52:46;;;;;;;0.60;0.60;;;7.90;99.90;;;;;;5029642;28;20049;-70
2022/10/17 01:55:28;;;;;;;0.73;0.73;;;7.40;99.90;;;;;;5031939;28;20033;-69
2022/10/17 01:58:04;;;;;;;0.50;0.50;;;7.40;99.90;;;;;;5030673;28;20520;-69
2022/10/17 02:00:30;;;;;;;0.40;0.40;;;7.60;99.90;;;;;;5032298;28;20477;-69
2022/10/17 02:03:03;;;;;;;0.82;0.82;;;7.50;99.90;;;;;;5031605;28;20523;-69
2022/10/17 02:05:32;;;;;;;0.63;0.63;;;6.80;99.90;;;;;;5029509;28;20069;-70
2022/10/17 02:07:58;;;;;;;0.30;0.30;;;7.00;99.90;;;;;;5031481;28;20132;-69
2022/10/17 02:10:52;;;;;;;0.40;0.40;;;7.50;99.90;;;;;;5032147;28;20557;-69
2022/10/17 02:13:36;;;;;;;0.73;0.73;;;7.00;99.90;;;;;;5031479;28;20453;-69
2022/10/17 02:16:32;;;;;;;0.57;0.57;;;7.20;99.90;;;;;;5031328;28;20025;-69
2022/10/17 02:19:19;;;;;;;0.47;0.47;;;7.20;99.90;;;;;;5030339;28;20381;-70
2022/10/17 02:22:09;;;;;;;0.40;0.40;;;7.20;99.90;;;;;;5028948;28;20041;-69
2022/10/17 02:25:04;;;;;;;0.40;0.40;;;6.90;99.90;;;;;;5031054;28;20481;-70
2022/10/17 02:28:08;;;;;;;0.63;0.63;;;7.30;99.90;;;;;;5030817;28;20054;-70
2022/10/17 02:30:59;;;;;;;2.05;1.40;;;7.20;99.90;;;;;;5030645;28;20033;-68
2022/10/17 02:33:33;;;;;;;1.05;0.95;;;7.00;99.90;;;;;;5030686;28;20017;-71
2022/10/17 02:36:04;;;;;;;0.80;0.80;;;7.30;99.90;;;;;;5031000;28;20022;-69
2022/10/17 02:38:32;;;;;;;1.35;1.25;;;7.20;99.90;;;;;;5030990;28;20051;-70
2022/10/17 02:40:58;;;;;;;0.57;0.57;;;7.10;99.90;;;;;;5031836;28;20036;-69
2022/10/17 02:43:24;;;;;;;1.65;1.55;;;7.50;99.90;;;;;;5030220;28;20028;-68
2022/10/17 02:45:51;;;;;;;0.57;0.57;;;7.30;99.90;;;;;;5031854;28;20488;-69
2022/10/17 02:48:17;;;;;;;;;;;7.30;99.90;;;;;;5031817;28;20052;-69
2022/10/17 02:50:55;;;;;;;0.30;0.30;;;7.40;99.90;;;;;;5032237;28;19917;-68
2022/10/17 02:53:39;;;;;;;1.00;0.93;;;7.50;99.90;;;;;;5031716;28;20037;-69
2022/10/17 02:56:15;;;;;;;0.77;0.77;;;7.20;99.90;;;;;;5028392;28;20044;-68
2022/10/17 02:58:44;;;;;;;0.40;0.40;;;7.10;99.90;;;;;;5029519;28;20067;-68
2022/10/17 03:01:12;;;;;;;1.00;0.77;;;7.20;99.90;;;;;;5030010;28;20029;-69
2022/10/17 03:03:38;;;;;;;0.70;0.70;;;;;;;;;;5029236;28;20029;-70
2022/10/17 03:06:03;;;;;;;0.67;0.67;;;;;;;;;;5029658;28;20045;-69
2022/10/17 03:08:29;;;;;;;0.70;0.70;;;;;;;;;;5029736;28;20114;-70
2022/10/17 03:10:56;;;;;;;0.70;0.70;;;;;;;;;;5029317;28;20322;-71
2022/10/17 03:13:21;;;;;;;0.40;0.40;;;7.40;99.90;;;;;;5029378;28;20052;-69
2022/10/17 03:15:47;;;;;;;0.60;0.60;;;;;;;;;;5029337;28;20029;-70
2022/10/17 03:18:13;;;;;;;0.70;0.70;;;;;;;;;;5030210;28;20176;-69
2022/10/17 03:20:39;;;;;;;2.33;1.70;;;;;;;;;;5030319;28;20637;-69
2022/10/17 03:23:05;;;;;;;1.20;1.20;;;;;;;;;;5027061;28;20041;-70
2022/10/17 03:25:31;;;;;;;1.40;1.30;;;;;;;;;;5029833;28;20048;-71
2022/10/17 03:27:59;;;;;;;0.40;0.40;;;7.40;99.90;;;;;;5029924;28;20041;-70
2022/10/17 03:30:25;;;;;;;0.40;0.40;;;;;;;;;;5028615;28;20072;-68
2022/10/17 03:32:50;;;;;;;5.33;1.13;;;6.90;99.90;;;;;;5027305;28;20061;-70
2022/10/17 03:35:16;;;;;;;0.40;0.40;;;6.70;99.90;;;;;;5030653;28;20033;-71
2022/10/17 03:37:42;;;;;;;0.40;0.40;;;;;;;;;;5029220;28;20037;-69
2022/10/17 03:40:08;;;;;;;0.47;0.47;;;6.80;99.90;;;;;;5029777;28;20112;-69
2022/10/17 03:42:33;;;;;;;0.40;0.40;;;7.20;99.90;;;;;;5029842;28;20112;-70
2022/10/17 03:44:59;;;;;;;0.40;0.40;;;7.50;99.90;;;;;;5030540;28;20139;-70
2022/10/17 03:47:24;;;;;;;0.80;0.80;;;7.10;99.90;;;;;;5030124;28;20060;-70
2022/10/17 03:49:52;;;;;;;0.40;0.40;;;;;;;;;;5011590;28;20041;-70
2022/10/17 03:52:18;;;;;;;0.73;0.73;;;;;;;;;;5017209;28;20056;-70
2022/10/17 03:54:44;;;;;;;0.50;0.50;;;7.20;99.90;;;;;;5029351;28;20537;-70
2022/10/17 03:57:09;;;;;;;0.40;0.40;;;7.10;99.90;;;;;;5028858;28;20121;-70
2022/10/17 03:59:35;;;;;;;0.57;0.57;;;;;;;;;;5029860;28;20473;-70
2022/10/17 04:02:01;;;;;;;1.07;1.07;;;;;;;;;;5030047;28;20421;-70
2022/10/17 04:04:27;;;;;;;0.40;0.40;;;;;;;;;;5029363;28;20048;-69
2022/10/17 04:06:53;;;;;;;1.33;0.97;;;7.00;99.90;;;;;;5028131;28;20067;-70
2022/10/17 04:09:18;;;;;;;0.90;0.90;;;6.70;99.90;;;;;;5028151;28;20038;-70
2022/10/17 04:11:44;;;;;;;0.60;0.60;;;;;;;;;;5030774;28;20036;-70
2022/10/17 04:14:10;;;;;;;1.00;1.00;;;;;;;;;;5028130;28;20037;-70
2022/10/17 04:16:36;;;;;;;3.00;0.83;;;;;;;;;;5028373;28;20128;-69
2022/10/17 04:19:02;;;;;;;0.40;0.40;;;6.90;99.90;;;;;;5028818;28;20112;-70
2022/10/17 04:21:28;;;;;;;0.40;0.40;;;6.80;99.90;;;;;;5029875;28;20038;-70
2022/10/17 04:23:58;;;;;;;0.80;0.80;;;7.00;99.90;;;;;;5030153;28;20538;-71
2022/10/17 04:26:26;;;;;;;0.90;0.77;;;6.90;99.90;;;;;;5028817;28;20057;-71
2022/10/17 04:28:51;;;;;;;1.08;0.60;;;7.00;99.90;;;;;;5028070;28;20517;-71
2022/10/17 04:31:17;;;;;;;0.73;0.73;;;7.10;99.90;;;;;;5022033;28;20072;-71
2022/10/17 04:33:48;;;;;;;1.08;1.00;;;6.80;99.90;;;;;;5016683;28;20029;-70
2022/10/17 04:36:16;;;;;;;0.40;0.40;;;5.60;99.90;;;;;;5030500;28;20037;-71
2022/10/17 04:38:42;;;;;;;0.60;0.60;;;7.10;99.90;;;;;;5033042;28;20061;-70
2022/10/17 04:41:14;;;;;;;0.40;0.40;;;6.80;99.90;;;;;;5032529;28;20068;-72
2022/10/17 04:43:41;;;;;;;0.43;0.43;;;7.00;99.90;;;;;;5031607;28;20124;-70
2022/10/17 04:46:09;;;;;;;0.80;0.80;;;7.20;99.90;;;;;;5034114;28;20083;-70
2022/10/17 04:48:35;;;;;;;0.60;0.60;;;7.10;99.90;;;;;;5031927;28;20103;-70
2022/10/17 04:51:03;;;;;;;1.70;1.53;;;7.10;99.90;;;;;;5033325;28;20029;-70
2022/10/17 04:53:31;;;;;;;0.43;0.43;;;7.20;99.90;;;;;;5033303;28;20473;-70
2022/10/17 04:55:56;;;;;;;0.40;0.40;;;7.20;99.90;;;;;;5032891;28;20413;-70
2022/10/17 04:58:23;;;;;;;0.77;0.77;;;7.30;99.90;;;;;;5033086;28;20029;-70
2022/10/17 05:00:48;;;;;;;3.87;1.40;;;7.30;99.90;;;;;;5032790;28;20033;-70
2022/10/17 05:03:14;;;;;;;1.27;1.17;;;7.40;99.90;;;;;;5033077;28;20365;-70
2022/10/17 05:05:41;;;;;;;0.40;0.40;;;7.40;99.90;;;;;;5033737;28;20030;-72
2022/10/17 05:08:08;;;;;;;1.58;1.45;;;7.40;99.90;;;;;;5032258;28;20044;-69
2022/10/17 05:10:42;;;;;;;0.80;0.80;;;7.40;99.90;;;;;;5032781;28;20531;-70
2022/10/17 05:13:08;;;;;;;0.88;0.88;;;7.40;99.90;;;;;;5030869;28;20029;-70
2022/10/17 05:15:35;;;;;;;0.40;0.40;;;7.40;99.90;;;;;;5032661;28;20361;-70
2022/10/17 05:18:00;;;;;;;1.88;1.38;;;7.40;99.90;;;;;;5031486;28;20105;-70
2022/10/17 05:20:26;;;;;;;2.57;1.90;;;7.40;99.90;;;;;;5030891;28;20053;-70
2022/10/17 05:22:51;;;;;;;0.40;0.40;;;7.40;99.90;;;;;;5030896;28;20037;-71
2022/10/17 05:25:18;;;;;;;1.20;1.10;;;7.40;99.90;;;;;;5030653;28;20065;-70
2022/10/17 05:27:43;;;;;;;1.48;1.38;;;7.40;99.90;;;;;;5032218;28;20109;-71
2022/10/17 05:30:09;;;;;;;0.50;0.50;;;7.50;99.90;;;;;;5032149;28;20104;-72
2022/10/17 05:32:35;;;;;;;0.63;0.63;;;7.50;99.90;;;;;;5031692;28;20558;-70
2022/10/17 05:35:03;;;;;;;0.47;0.47;;;7.60;99.90;;;;;;5030533;28;20346;-70
2022/10/17 05:37:29;;;;;;;0.82;0.65;;;7.70;99.90;;;;;;5031392;28;20030;-71
2022/10/17 05:39:54;;;;;;;2.22;1.13;;;7.70;99.90;;;;;;5031121;28;20433;-70
2022/10/17 05:42:20;;;;;;;1.10;1.10;;;7.80;99.90;;;;;;5030966;28;20132;-71
2022/10/17 05:44:46;;;;;;;0.97;0.97;;;7.90;99.90;;;;;;5019042;28;20033;-71
2022/10/17 05:47:11;;;;;;;2.40;1.83;;;8.00;99.90;;;;;;5030895;28;20080;-72
2022/10/17 05:49:37;;;;;;;0.77;0.77;;;8.10;99.90;;;;;;5031844;28;20028;-72
2022/10/17 05:52:02;;;;;;;0.50;0.50;;;8.20;99.90;;;;;;5031685;28;20029;-72
2022/10/17 05:54:28;;;;;;;0.70;0.70;;;8.30;99.90;;;;;;5031892;28;20030;-71
2022/10/17 05:56:54;;;;;;;0.53;0.50;;;8.60;99.90;;;;;;5033063;28;20071;-71
2022/10/17 05:59:21;;;;;;;1.38;1.30;;;9.00;99.90;;;;;;5031347;28;20479;-71
2022/10/17 06:01:46;;;;;;;3.83;1.00;;;9.30;99.90;;;;;;5030513;28;20033;-71
2022/10/17 06:04:12;;;;;;;3.23;1.63;;;9.60;99.90;;;;;;5031770;28;20063;-70
2022/10/17 06:06:39;;;;;;;0.80;0.80;;;9.70;99.90;;;;;;5031288;28;20068;-72
2022/10/17 06:09:05;;;;;;;0.95;0.95;;;9.90;99.90;;;;;;5032732;28;20373;-72
2022/10/17 06:11:31;;;;;;;1.48;1.38;;;10.00;99.90;;;;;;5032133;28;20087;-70
2022/10/17 06:13:56;;;;;;;11.17;1.60;;;10.10;99.90;;;;;;5031343;28;20037;-71
2022/10/17 06:16:22;;;;;;;0.50;0.50;;;10.30;99.90;;;;;;5031587;28;20033;-71
2022/10/17 06:18:48;;;;;;;1.10;1.10;;;10.50;99.90;;;;;;5031817;28;20064;-71
2022/10/17 06:21:20;;;;;;;2.50;1.10;;;10.60;99.90;;;;;;5030662;28;20037;-71
2022/10/17 06:23:46;;;;;;;1.80;1.23;;;10.60;99.90;;;;;;5030394;28;20500;-71
2022/10/17 06:26:12;;;;;;;0.70;0.70;;;10.60;99.90;;;;;;5029927;28;20125;-71
2022/10/17 06:28:38;;;;;;;0.40;0.40;;;10.60;99.90;;;;;;5030134;28;20091;-71
2022/10/17 06:31:14;;;;;;;0.50;0.50;;;10.60;99.90;;;;;;5030416;28;20489;-72
2022/10/17 06:33:40;;;;;;;4.37;1.20;;;10.50;99.90;;;;;;5031314;28;20029;-71
2022/10/17 06:36:08;;;;;;;1.77;1.07;;;10.60;99.90;;;;;;5030099;28;20040;-70
2022/10/17 06:38:34;;;;;;;0.90;0.90;;;10.70;99.90;;;;;;5031332;28;20328;-71
2022/10/17 06:41:03;;;;;;;0.97;0.97;;;10.70;99.90;;;;;;5030377;28;20026;-69
2022/10/17 06:43:29;;;;;;;0.57;0.57;;;10.70;99.90;;;;;;5030713;28;20469;-70
2022/10/17 06:45:55;;;;;;;0.60;0.60;;;10.70;99.90;;;;;;5030124;28;20032;-70
2022/10/17 06:48:20;;;;;;;1.53;1.43;;;10.70;99.90;;;;;;5030787;28;20484;-69
2022/10/17 06:50:46;;;;;;;1.10;1.10;;;10.70;99.90;;;;;;5029726;28;20124;-70
2022/10/17 06:53:12;;;;;;;0.50;0.50;;;10.70;99.90;;;;;;5030800;28;20374;-70
2022/10/17 06:55:37;;;;;;;1.60;1.50;;;10.80;99.90;;;;;;5031346;28;20305;-69
2022/10/17 06:58:03;;;;;;;1.57;1.47;;;10.90;99.90;;;;;;5029758;28;20045;-70
2022/10/17 07:00:28;;;;;;;0.40;0.40;;;10.90;99.90;;;;;;5030137;28;20042;-70
2022/10/17 07:02:54;;;;;;;1.00;0.67;;;11.00;99.90;;;;;;5029123;28;20144;-71
2022/10/17 07:05:20;;;;;;;1.73;1.63;;;;;;;;;;5029583;28;20072;-70
2022/10/17 07:07:46;;;;;;;0.68;0.68;;;11.20;99.90;;;;;;5028911;28;20075;-70
2022/10/17 07:10:12;;;;;;;1.43;1.37;;;11.30;99.90;;;;;;5027829;28;20060;-70
2022/10/17 07:12:37;;;;;;;2.37;2.17;;;11.50;99.90;;;;;;5030910;28;20041;-70
2022/10/17 07:15:04;;;;;;;1.27;1.07;;;11.60;99.90;;;;;;5030995;28;20036;-71
2022/10/17 07:17:30;;;;;;;0.85;0.85;;;11.60;99.90;;;;;;5029677;28;20136;-70
2022/10/17 07:19:56;;;;;;;0.98;0.98;;;11.60;99.90;;;;;;5028801;28;20087;-70
2022/10/17 07:22:21;;;;;;;2.43;1.07;;;11.70;99.90;;;;;;5030892;28;20132;-71
2022/10/17 07:24:47;;;;;;;1.30;1.20;;;11.90;99.90;;;;;;5030067;28;20037;-70
2022/10/17 07:27:13;;;;;;;0.93;0.80;;;12.00;99.90;;;;;;5028114;28;20037;-69
2022/10/17 07:29:39;;;;;;;2.83;1.05;;;12.20;99.90;;;;;;5029812;28;20496;-71
2022/10/17 07:32:07;;;;;;;0.63;0.63;;;12.50;99.90;;;;;;5030091;28;20041;-70
2022/10/17 07:34:36;;;;;;;1.48;1.35;;;12.40;99.90;;;;;;5029914;28;20022;-69
2022/10/17 07:37:02;;;;;;;0.90;0.90;;;12.70;99.90;;;;;;5046268;28;20033;-71
2022/10/17 07:39:28;;;;;;;1.63;1.52;;;12.60;99.90;;;;;;5032533;28;20048;-70
2022/10/17 07:41:54;;;;;;;1.07;0.97;;;12.80;99.90;;;;;;5030593;28;20346;-71
2022/10/17 07:44:19;;;;;;;0.60;0.60;;;12.90;99.90;;;;;;5029509;28;20551;-70
2022/10/17 07:46:45;;;;;;;0.70;0.70;;;13.00;99.90;;;;;;5028278;28;20560;-70
2022/10/17 07:49:11;;;;;;;0.80;0.80;;;13.10;99.90;;;;;;5028419;28;20492;-71
2022/10/17 07:51:36;;;;;;;0.93;0.90;;;13.10;99.90;;;;;;5031671;28;20091;-70
2022/10/17 07:54:04;;;;;;;0.80;0.80;;;13.30;99.90;;;;;;5029269;28;20029;-70
2022/10/17 07:56:30;;;;;;;0.98;0.80;;;13.30;99.90;;;;;;5030221;28;20491;-70
2022/10/17 07:58:56;;;;;;;0.63;0.60;;;13.40;99.90;;;;;;5032221;28;20033;-71
2022/10/17 08:01:22;;;;;;;0.60;0.60;;;13.50;99.90;;;;;;5030164;28;20389;-69
2022/10/17 08:03:47;;;;;;;0.73;0.73;;;13.60;99.90;;;;;;5032008;28;20029;-71
2022/10/17 08:06:13;;;;;;;0.67;0.63;;;13.60;99.90;;;;;;5029120;28;20037;-69
2022/10/17 08:08:39;;;;;;;2.20;2.00;;;13.90;99.90;;;;;;5028411;28;20429;-71
2022/10/17 08:11:07;;;;;;;0.75;0.75;;;14.00;99.90;;;;;;5032822;28;20076;-71
2022/10/17 08:13:33;;;;;;;1.85;1.75;;;14.20;99.90;;;;;;5033746;28;20468;-71
2022/10/17 08:16:01;;;;;;;1.90;1.63;;;14.20;99.90;;;;;;5034529;28;20061;-70
2022/10/17 08:18:26;;;;;;;2.72;1.25;;;14.40;99.80;;;;;;5033830;28;20545;-70
2022/10/17 08:20:52;;;;;;;0.73;0.73;;;14.50;99.40;;;;;;5033870;28;20275;-71
2022/10/17 08:23:17;;;;;;;0.60;0.60;;;14.60;99.60;;;;;;5031547;28;20036;-70
2022/10/17 08:25:43;;;;;;;3.90;1.03;;;14.80;99.20;;;;;;5033330;28;20489;-71
2022/10/17 08:28:08;;;;;;;2.33;1.60;;;15.10;99.00;;;;;;5033117;28;20431;-70
2022/10/17 08:30:34;;;;;;;0.60;0.60;;;15.30;97.90;;;;;;5033354;28;20449;-68
2022/10/17 08:32:59;;;;;;;0.40;0.40;;;15.50;97.70;;;;;;5032166;28;20376;-69
2022/10/17 08:35:28;;;;;;;1.63;1.57;;;15.80;97.20;;;;;;5031677;28;20469;-70
2022/10/17 08:37:54;;;;;;;0.43;0.43;;;16.00;96.60;;;;;;5032104;28;20030;-69
2022/10/17 08:40:24;;;;;;;3.40;1.27;;;16.40;96.00;;;;;;5032735;28;20044;-69
2022/10/17 08:43:09;;;;;;;0.45;0.45;;;16.50;95.70;;;;;;5033313;28;20103;-69
2022/10/17 08:45:45;;;;;;;0.30;0.30;;;16.40;95.20;;;;;;5032494;28;20048;-69
2022/10/17 08:48:17;;;;;;;0.60;0.60;;;16.50;95.00;;;;;;5032041;28;20125;-71
2022/10/17 08:50:59;;;;;;;1.23;0.95;;;16.40;95.00;;;;;;5031817;28;20060;-70
2022/10/17 08:53:34;;;;;;;0.52;0.52;;;16.50;94.40;;;;;;5031906;28;20021;-71
2022/10/17 08:56:24;;;;;;;0.75;0.75;;;16.70;94.30;;;;;;5032511;28;20025;-71
2022/10/17 08:58:50;;;;;;;0.98;0.98;;;16.90;93.80;;;;;;5032079;28;20452;-72
2022/10/17 09:01:18;;;;;;;1.35;0.75;;;17.20;93.60;;;;;;5032158;28;20030;-71
2022/10/17 09:04:06;;;;;;;1.63;1.52;;;17.20;93.20;;;;;;5030631;28;20037;-71
2022/10/17 09:06:38;;;;;;;0.40;0.40;;;17.30;93.50;;;;;;5030367;28;20037;-71
2022/10/17 09:09:10;;;;;;;0.80;0.80;;;17.40;93.40;;;;;;5031487;28;20069;-71
2022/10/17 09:11:40;;;;;;;4.85;0.85;;;17.60;93.20;;;;;;5032926;28;20082;-70
2022/10/17 09:14:43;;;;;;;2.47;1.13;;;17.30;93.10;;;;;;5017008;28;20432;-71
2022/10/17 09:18:01;;;;;;;0.43;0.43;;;17.00;93.40;;;;;;5033518;28;20029;-71
2022/10/17 09:20:35;;;;;;;0.80;0.80;;;16.90;93.80;;;;;;5002483;28;20041;-70
2022/10/17 09:23:05;;;;;;;1.58;1.02;;;16.80;93.50;;;;;;5025969;28;20028;-70
2022/10/17 09:25:39;;;;;;;0.73;0.73;;;16.80;93.80;;;;;;5012541;28;20121;-70
2022/10/17 09:28:37;;;;;;;0.55;0.55;;;16.80;93.60;;;;;;5014685;28;20101;-71
2022/10/17 09:31:19;;;;;;;1.00;1.00;;;16.80;93.70;;;;;;5031955;28;20037;-70
2022/10/17 09:33:46;;;;;;;0.68;0.68;;;16.70;93.30;;;;;;5027634;28;20516;-69
2022/10/17 09:36:24;;;;;;;0.30;0.30;;;16.60;93.50;;;;;;5031375;28;20048;-69
2022/10/17 09:38:58;;;;;;;1.13;1.02;;;16.20;93.60;;;;;;5031916;28;20040;-70
2022/10/17 09:41:33;;;;;;;1.00;0.63;;;16.00;94.30;;;;;;5032528;28;20033;-71
2022/10/17 09:44:27;;;;;;;0.65;0.65;;;16.20;94.30;;;;;;5032101;28;20080;-71
2022/10/17 09:47:17;;;;;;;0.50;0.50;;;16.30;93.90;;;;;;5030975;28;20396;-70
2022/10/17 09:49:45;;;;;;;0.40;0.40;;;16.40;93.70;;;;;;5030988;28;20033;-70
2022/10/17 09:52:36;;;;;;;0.43;0.38;;;16.40;93.60;;;;;;5031409;28;20045;-70
2022/10/17 09:55:19;;;;;;;0.55;0.55;;;16.40;93.50;;;;;;5031112;28;20042;-69
2022/10/17 09:58:00;;;;;;;0.40;0.40;;;16.40;93.80;;;;;;5031615;28;20472;-69
2022/10/17 10:00:28;;;;;;;1.20;0.75;;;16.40;93.40;;;;;;5032102;28;20065;-70
2022/10/17 10:03:17;;;;;;;0.60;0.60;;;16.40;93.60;;;;;;5030363;28;20377;-70
2022/10/17 10:05:57;;;;;;;0.32;0.32;;;16.70;93.10;;;;;;5028663;28;20087;-71
2022/10/17 10:08:35;;;;;;;1.00;1.00;;;17.00;92.80;;;;;;5018950;28;20033;-70
2022/10/17 10:11:06;;;;;;;0.55;0.55;;;17.20;92.10;;;;;;5030903;28;20048;-69
2022/10/17 10:13:33;;;;;;;0.85;0.82;;;17.50;92.70;;;;;;5031595;28;20491;-71
2022/10/17 10:16:13;;;;;;;;;;;17.80;91.60;;;;;;5030732;28;20358;-70
2022/10/17 10:18:38;;;;;;;0.75;0.75;;;18.00;90.80;;;;;;5030195;28;20376;-72
2022/10/17 10:21:07;;;;;;;0.53;0.53;;;17.70;90.60;;;;;;5031152;28;20037;-71
2022/10/17 10:23:33;;;;;;;0.60;0.60;;;17.60;91.00;;;;;;5031259;28;20049;-71
2022/10/17 10:26:04;;;;;;;0.45;0.45;;;17.70;91.00;;;;;;5029667;28;20026;-70
2022/10/17 10:28:33;;;;;;;1.75;1.63;;;17.90;90.70;;;;;;5029647;28;20033;-70
2022/10/17 10:31:03;;;;;;;0.60;0.60;;;18.20;90.30;;;;;;5030563;28;20048;-72
2022/10/17 10:33:31;;;;;;;0.90;0.90;;;18.40;90.30;;;;;;5030852;28;20393;-71
2022/10/17 10:36:00;;;;;;;1.00;1.00;;;18.60;90.30;;;;;;5030023;28;20034;-72
2022/10/17 10:38:26;;;;;;;1.85;0.90;;;18.80;88.90;;;;;;5027189;28;20017;-70
2022/10/17 10:41:01;;;;;;;0.77;0.77;;;18.80;88.00;;;;;;5029705;28;20120;-69
2022/10/17 10:43:48;;;;;;;0.75;0.75;;;18.90;87.50;;;;;;5030775;28;20092;-70
2022/10/17 10:46:26;;;;;;;1.48;1.25;;;19.10;86.20;;;;;;5030043;28;20036;-70
2022/10/17 10:48:59;;;;;;;0.45;0.45;;;19.30;85.40;;;;;;5030840;28;20033;-70
2022/10/17 10:51:46;;;;;;;0.57;0.57;;;19.50;85.50;;;;;;5030600;28;20444;-70
2022/10/17 10:54:49;;;;;;;1.02;1.02;;;19.70;84.30;;;;;;5029270;28;20078;-70
2022/10/17 10:57:20;;;;;;;8.70;1.52;;;19.70;83.50;;;;;;5027805;28;20068;-70
2022/10/17 11:00:03;;;;;;;0.57;0.57;;;19.60;83.70;;;;;;5030313;28;20032;-71
2022/10/17 11:02:57;;;;;;;0.65;0.63;;;19.60;83.60;;;;;;5029867;28;20038;-70
2022/10/17 11:05:40;;;;;;;0.50;0.50;;;19.60;80.20;;;;;;5015580;28;20523;-69
2022/10/17 11:08:34;;;;;;;1.10;0.82;;;19.20;81.20;;;;;;5029326;28;20040;-70
2022/10/17 11:11:12;;;;;;;0.43;0.43;;;19.40;81.30;;;;;;5030687;28;20117;-70
2022/10/17 11:13:53;;;;;;;0.55;0.55;;;19.50;79.30;;;;;;5029062;28;20025;-70
2022/10/17 11:16:27;;;;;;;0.55;0.55;;;19.60;78.60;;;;;;5029619;28;20033;-69
2022/10/17 11:19:13;;;;;;;0.50;0.50;;;19.60;79.50;;;;;;5030102;28;20034;-71
2022/10/17 11:21:52;;;;;;;1.77;0.90;;;19.60;77.90;;;;;;5030861;28;20058;-71
2022/10/17 11:24:32;;;;;;;1.27;0.77;;;19.50;76.70;;;;;;5028877;28;20033;-70
2022/10/17 11:27:01;;;;;;;0.60;0.60;;;19.30;76.70;;;;;;5030341;28;20053;-70
2022/10/17 11:29:32;;;;;;;1.08;0.85;;;19.10;77.40;;;;;;5029859;28;20131;-69
2022/10/17 11:32:04;;;;;;;0.80;0.75;;;18.60;77.00;;;;;;5025717;28;20045;-70
2022/10/17 11:34:34;;;;;;;0.80;0.80;;;18.80;77.80;;;;;;5028967;28;20013;-70
2022/10/17 11:37:05;;;;;;;2.05;0.95;;;18.60;77.90;;;;;;5029445;28;20064;-70
2022/10/17 11:39:47;;;;;;;1.58;1.38;;;18.40;77.90;;;;;;5029635;28;20108;-71
2022/10/17 11:42:18;;;;;;;0.88;0.85;;;18.10;78.70;;;;;;5030453;28;20037;-71
2022/10/17 11:44:44;;;;;;;1.20;0.98;;;17.90;79.30;;;;;;5029576;28;20481;-71
2022/10/17 11:47:33;;;;;;;0.73;0.57;;;17.70;80.10;;;;;;5029633;28;20095;-70
2022/10/17 11:50:33;;;;;;;0.75;0.75;;;17.50;81.20;;;;;;5027507;28;20056;-70
2022/10/17 11:53:02;;;;;;;0.30;0.30;;;17.40;80.50;;;;;;5029025;28;20159;-70
2022/10/17 11:55:30;;;;;;;1.27;1.17;;;17.30;81.20;;;;;;5029440;28;20037;-70
2022/10/17 11:58:14;;;;;;;0.60;0.60;;;16.60;80.80;;;;;;5028106;28;20487;-71
2022/10/17 12:01:01;;;;;;;0.82;0.82;;;16.90;81.50;;;;;;5028559;28;20392;-71
2022/10/17 12:04:01;;;;;;;0.68;0.68;;;16.80;83.20;;;;;;5028658;28;20030;-70
2022/10/17 12:06:55;;;;;;;1.02;0.95;;;16.80;82.40;;;;;;5029055;28;20136;-71
2022/10/17 12:09:44;;;;;;;0.63;0.60;;;16.50;84.10;;;;;;5028428;28;20025;-71
2022/10/17 12:12:24;;;;;;;2.80;1.90;;;15.90;87.70;;;;;;5028584;28;20037;-71
2022/10/17 12:14:50;;;;;;;2.00;1.35;;;;;;;;;;5029409;28;20032;-71
2022/10/17 12:17:25;;;;;;;1.00;1.00;;;;;;;;;;5029380;28;20026;-70
2022/10/17 12:19:51;;;;;;;0.70;0.70;;;16.50;92.40;;;;;;5027781;28;20047;-70
2022/10/17 12:22:20;;;;;;;1.67;1.57;;;16.30;92.50;;;;;;5029521;28;20120;-70
2022/10/17 12:24:56;;;;;;;0.88;0.88;;;16.20;84.00;;;;;;5028182;28;20029;-69
2022/10/17 12:27:44;;;;;;;0.40;0.40;;;16.20;84.40;;;;;;5025840;28;20380;-70
2022/10/17 12:30:25;;;;;;;0.88;0.88;;;16.10;85.00;;;;;;5020183;28;20112;-70
2022/10/17 12:33:04;;;;;;;0.40;0.40;;;;;;;;;;5029152;28;20061;-70
2022/10/17 12:35:32;;;;;;;0.57;0.57;;;16.10;85.90;;;;;;5025933;28;20042;-71
2022/10/17 12:38:15;;;;;;;0.95;0.93;;;16.10;86.00;;;;;;5027972;28;20112;-70
2022/10/17 12:40:41;;;;;;;0.98;0.98;;;16.10;86.00;;;;;;5027136;28;20434;-70
2022/10/17 12:43:12;;;;;;;0.73;0.73;;;16.10;86.80;;;;;;5027882;28;20178;-70
2022/10/17 12:45:51;;;;;;;4.03;1.08;;;16.00;87.00;;;;;;5029336;28;20038;-69
2022/10/17 12:48:32;;;;;;;0.90;0.85;;;16.00;87.30;;;;;;5028357;28;20053;-69
2022/10/17 12:51:05;;;;;;;0.38;0.38;;;16.20;85.80;;;;;;5044451;28;20162;-70
2022/10/17 12:53:54;;;;;;;2.05;1.85;;;16.20;85.90;;;;;;5028941;28;20026;-70
2022/10/17 12:56:41;;;;;;;0.60;0.60;;;16.30;85.90;;;;;;5028740;28;20041;-71
2022/10/17 12:59:14;;;;;;;0.30;0.30;;;16.70;86.90;;;;;;5032660;28;20151;-71
2022/10/17 13:01:45;;;;;;;0.60;0.60;;;16.10;86.40;;;;;;5032134;28;20044;-71
2022/10/17 13:04:11;;;;;;;1.83;1.52;;;16.60;88.20;;;;;;5032759;28;20033;-71
2022/10/17 13:06:46;;;;;;;1.40;1.30;;;16.70;86.80;;;;;;5033753;28;20034;-69
2022/10/17 13:09:29;;;;;;;0.40;0.40;;;16.10;90.40;;;;;;5031579;28;20044;-70
2022/10/17 13:11:57;;;;;;;3.53;0.80;;;16.20;88.00;;;;;;5032897;28;20120;-70
2022/10/17 13:14:24;;;;;;;0.50;0.45;;;16.20;90.70;;;;;;5030888;28;20030;-69
2022/10/17 13:16:56;;;;;;;1.17;1.08;;;15.90;91.00;;;;;;5033833;28;20366;-70
2022/10/17 13:19:27;;;;;;;0.65;0.63;;;12.10;83.40;;;;;;5032765;28;20030;-70
2022/10/17 13:21:59;;;;;;;0.30;0.30;;;16.30;86.30;;;;;;5031486;28;20081;-70
2022/10/17 13:24:29;;;;;;;1.90;1.50;;;16.90;90.50;;;;;;5032945;28;20048;-70